createdAt,value
2019-04-19T00:00:34.886Z,32.81
2019-04-19T00:03:02.415Z,32.95
2019-04-19T00:05:33.682Z,33.03
2019-04-19T00:08:16.695Z,33.08
2019-04-19T00:10:37.729Z,33.04
2019-04-19T00:13:00.990Z,33.05
2019-04-19T00:15:24.499Z,33.10
2019-04-19T00:17:57.913Z,33.15
2019-04-19T00:20:36.747Z,33.14
2019-04-19T00:23:01.996Z,33.22
2019-04-19T00:25:17.623Z,33.28
2019-04-19T00:27:51.697Z,33.28
2019-04-19T00:30:24.079Z,33.34
2019-04-19T00:33:00.662Z,33.48
2019-04-19T00:35:11.964Z,33.79
2019-04-19T00:37:38.824Z,33.89
2019-04-19T00:40:21.214Z,33.90
2019-04-19T00:42:48.337Z,33.90
2019-04-19T00:45:20.200Z,34.02
2019-04-19T00:47:49.994Z,34.06
2019-04-19T00:50:12.510Z,34.02
2019-04-19T00:52:54.463Z,34.12
2019-04-19T00:55:09.173Z,34.29
2019-04-19T00:57:33.390Z,34.37
2019-04-19T00:59:56.577Z,34.35
2019-04-19T01:02:25.297Z,34.29
2019-04-19T01:04:57.285Z,34.21
2019-04-19T01:07:29.291Z,34.13
2019-04-19T01:10:10.088Z,34.12
2019-04-19T01:12:30.164Z,34.09
2019-04-19T01:15:00.948Z,34.35
2019-04-19T01:17:25.577Z,34.52
2019-04-19T01:19:47.216Z,34.62
2019-04-19T01:22:21.197Z,34.62
2019-04-19T01:24:46.070Z,34.55
2019-04-19T01:27:13.291Z,34.41
2019-04-19T01:29:46.434Z,34.54
2019-04-19T01:32:11.709Z,34.62
2019-04-19T01:34:37.530Z,34.60
2019-04-19T01:37:12.172Z,34.59
2019-04-19T01:39:55.789Z,34.79
2019-04-19T01:42:22.299Z,34.70
2019-04-19T01:44:47.600Z,34.61
2019-04-19T01:47:15.658Z,34.61
2019-04-19T01:49:44.803Z,34.64
2019-04-19T01:52:20.566Z,34.63
2019-04-19T01:54:43.398Z,34.71
2019-04-19T01:56:58.248Z,35.01
2019-04-19T01:59:24.868Z,35.24
2019-04-19T02:01:58.117Z,35.46
2019-04-19T02:04:24.667Z,35.60
2019-04-19T02:06:51.193Z,35.54
2019-04-19T02:09:29.115Z,35.39
2019-04-19T02:11:54.488Z,35.31
2019-04-19T02:14:20.809Z,35.19
2019-04-19T02:16:49.593Z,35.03
2019-04-19T02:19:17.750Z,34.98
2019-04-19T02:21:45.212Z,34.87
2019-04-19T02:24:10.557Z,34.89
2019-04-19T02:26:44.642Z,34.93
2019-04-19T02:29:10.962Z,35.19
2019-04-19T02:32:00.928Z,35.35
2019-04-19T02:39:29.208Z,35.45
2019-04-19T02:41:59.401Z,35.62
2019-04-19T02:44:26.839Z,35.63
2019-04-19T02:47:01.129Z,35.49
2019-04-19T02:49:32.043Z,35.41
2019-04-19T02:51:54.574Z,35.39
2019-04-19T02:59:37.345Z,35.53
2019-04-19T03:01:55.398Z,35.76
2019-04-19T03:04:24.584Z,35.80
2019-04-19T03:06:29.221Z,35.72
2019-04-19T03:08:46.543Z,35.65
2019-04-19T03:11:33.589Z,35.86
2019-04-19T03:13:57.115Z,35.93
2019-04-19T03:16:31.193Z,35.87
2019-04-19T03:18:53.515Z,35.87
2019-04-19T03:21:29.603Z,35.91
2019-04-19T03:23:56.694Z,35.85
2019-04-19T03:26:28.125Z,35.79
2019-04-19T03:28:44.619Z,35.86
2019-04-19T03:31:32.738Z,36.11
2019-04-19T03:33:59.456Z,36.31
2019-04-19T03:36:20.191Z,36.36
2019-04-19T03:38:42.943Z,36.36
2019-04-19T03:41:19.491Z,36.56
2019-04-19T03:43:47.409Z,36.57
2019-04-19T03:46:12.491Z,36.46
2019-04-19T03:48:47.866Z,36.42
2019-04-19T03:51:08.644Z,36.60
2019-04-19T03:53:56.199Z,36.60
2019-04-19T03:56:23.773Z,36.72
2019-04-19T03:58:22.022Z,36.82
2019-04-19T04:00:47.834Z,36.92
2019-04-19T04:03:24.238Z,36.99
2019-04-19T04:05:48.265Z,36.98
2019-04-19T04:08:17.388Z,37.13
2019-04-19T04:10:45.242Z,36.98
2019-04-19T04:13:20.198Z,36.79
2019-04-19T04:15:53.257Z,36.79
2019-04-19T04:18:06.840Z,36.99
2019-04-19T04:20:35.302Z,37.23
2019-04-19T04:23:08.055Z,37.21
2019-04-19T04:25:41.680Z,37.20
2019-04-19T04:28:10.390Z,37.33
2019-04-19T04:30:36.764Z,37.50
2019-04-19T04:33:07.424Z,37.38
2019-04-19T04:35:41.380Z,37.22
2019-04-19T04:38:07.010Z,37.07
2019-04-19T04:40:24.013Z,36.83
2019-04-19T04:43:03.899Z,36.70
2019-04-19T04:45:38.755Z,36.52
2019-04-19T04:48:05.350Z,36.52
2019-04-19T04:50:44.272Z,36.51
2019-04-19T04:52:47.610Z,36.56
2019-04-19T04:55:14.100Z,36.55
2019-04-19T04:57:49.510Z,36.64
2019-04-19T05:00:09.818Z,36.63
2019-04-19T05:02:53.690Z,36.65
2019-04-19T05:05:23.356Z,36.51
2019-04-19T05:07:59.814Z,36.38
2019-04-19T05:10:20.087Z,36.19
2019-04-19T05:13:10.668Z,36.07
2019-04-19T05:15:22.519Z,35.97
2019-04-19T05:17:55.736Z,35.77
2019-04-19T05:20:21.140Z,35.64
2019-04-19T05:22:38.901Z,35.45
2019-04-19T05:25:22.294Z,35.25
2019-04-19T05:27:45.517Z,35.06
2019-04-19T05:29:54.470Z,34.91
2019-04-19T05:32:27.013Z,34.72
2019-04-19T05:35:06.891Z,34.49
2019-04-19T05:37:36.865Z,34.25
2019-04-19T05:40:04.791Z,34.03
2019-04-19T05:42:37.061Z,33.79
2019-04-19T05:45:18.505Z,33.54
2019-04-19T05:47:26.055Z,33.27
2019-04-19T05:49:56.396Z,33.12
2019-04-19T05:52:31.664Z,32.86
2019-04-19T05:54:38.665Z,32.87
2019-04-19T05:57:26.543Z,32.83
2019-04-19T05:59:44.767Z,32.67
2019-04-19T06:02:15.889Z,32.39
2019-04-19T06:05:02.482Z,32.13
2019-04-19T06:07:17.868Z,31.96
2019-04-19T06:09:28.673Z,31.72
2019-04-19T06:11:56.959Z,31.57
2019-04-19T06:14:54.539Z,31.35
2019-04-19T06:17:07.534Z,31.17
2019-04-19T06:19:38.547Z,30.97
2019-04-19T06:22:05.740Z,30.77
2019-04-19T06:24:36.916Z,30.55
2019-04-19T06:27:13.042Z,30.44
2019-04-19T06:29:43.971Z,30.28
2019-04-19T06:32:12.984Z,29.99
2019-04-19T06:34:31.412Z,29.80
2019-04-19T06:36:54.968Z,29.59
2019-04-19T06:39:11.916Z,29.57
2019-04-19T06:41:47.188Z,29.46
2019-04-19T06:44:16.920Z,29.33
2019-04-19T06:46:51.078Z,29.15
2019-04-19T06:49:14.664Z,28.98
2019-04-19T06:51:43.610Z,28.93
2019-04-19T06:54:06.004Z,28.86
2019-04-19T06:56:35.420Z,28.76
2019-04-19T06:59:13.085Z,28.35
2019-04-19T07:01:37.187Z,27.99
2019-04-19T07:03:57.961Z,27.68
2019-04-19T07:06:39.458Z,27.30
2019-04-19T07:09:23.698Z,26.98
2019-04-19T07:11:48.201Z,26.61
2019-04-19T07:14:01.704Z,26.27
2019-04-19T07:16:40.926Z,26.19
2019-04-19T07:19:10.825Z,25.84
2019-04-19T07:21:38.452Z,25.52
2019-04-19T07:24:09.996Z,25.37
2019-04-19T07:26:40.036Z,24.70
2019-04-19T07:28:45.250Z,24.32
2019-04-19T07:31:13.547Z,23.93
2019-04-19T07:33:50.297Z,23.46
2019-04-19T07:36:30.396Z,23.19
2019-04-19T07:39:03.545Z,22.60
2019-04-19T07:41:27.928Z,22.03
2019-04-19T07:43:52.480Z,21.61
2019-04-19T07:46:29.453Z,21.16
2019-04-19T07:48:36.470Z,20.88
2019-04-19T07:51:11.007Z,20.58
2019-04-19T07:53:38.773Z,20.34
2019-04-19T07:56:13.354Z,20.10
2019-04-19T07:58:52.204Z,19.79
2019-04-19T08:01:39.565Z,19.56
2019-04-19T08:06:27.837Z,19.23
2019-04-19T08:08:55.919Z,19.07
2019-04-19T08:11:26.684Z,19.00
2019-04-19T08:13:58.817Z,18.90
2019-04-19T08:16:14.216Z,18.67
2019-04-19T08:28:26.539Z,19.08
2019-04-19T08:30:48.715Z,18.85
2019-04-19T08:33:12.655Z,18.82
2019-04-19T08:35:45.467Z,18.71
2019-04-19T08:38:13.717Z,19.34
2019-04-19T08:40:55.474Z,19.78
2019-04-19T08:43:22.778Z,19.87
2019-04-19T08:45:34.465Z,19.94
2019-04-19T08:48:11.257Z,20.07
2019-04-19T08:50:30.899Z,20.05
2019-04-19T08:53:04.017Z,19.98
2019-04-19T08:55:46.385Z,19.85
2019-04-19T08:58:01.775Z,19.68
2019-04-19T09:00:54.497Z,19.43
2019-04-19T09:03:03.899Z,19.42
2019-04-19T09:05:37.607Z,19.29
2019-04-19T09:08:12.252Z,19.20
2019-04-19T09:10:58.322Z,18.89
2019-04-19T09:13:18.188Z,18.72
2019-04-19T09:15:30.180Z,18.79
2019-04-19T09:20:34.682Z,18.97
2019-04-19T09:22:53.237Z,19.00
2019-04-19T09:25:27.999Z,19.14
2019-04-19T09:27:59.911Z,19.22
2019-04-19T09:30:31.300Z,19.20
2019-04-19T09:32:39.960Z,19.16
2019-04-19T09:35:09.658Z,19.21
2019-04-19T09:37:46.662Z,19.37
2019-04-19T09:40:12.199Z,19.50
2019-04-19T09:42:46.798Z,19.52
2019-04-19T09:45:05.387Z,19.48
2019-04-19T09:47:33.247Z,19.48
2019-04-19T09:50:11.827Z,19.54
2019-04-19T09:52:50.642Z,19.61
2019-04-19T09:55:21.564Z,19.64
2019-04-19T09:57:43.312Z,19.65
2019-04-19T10:00:02.202Z,19.65
2019-04-19T10:02:31.898Z,19.67
2019-04-19T10:04:54.755Z,19.67
2019-04-19T10:07:23.066Z,19.71
2019-04-19T10:09:55.391Z,19.75
2019-04-19T10:12:19.654Z,19.77
2019-04-19T10:14:47.803Z,19.80
2019-04-19T10:17:16.200Z,19.87
2019-04-19T10:19:44.468Z,19.87
2019-04-19T10:22:12.380Z,19.79
2019-04-19T10:24:41.091Z,19.83
2019-04-19T10:27:09.049Z,19.89
2019-04-19T10:29:40.142Z,19.89
2019-04-19T10:32:06.588Z,19.87
2019-04-19T10:34:34.549Z,19.91
2019-04-19T10:37:01.906Z,19.92
2019-04-19T10:39:29.934Z,19.96
2019-04-19T10:41:58.490Z,19.93
2019-04-19T10:44:27.057Z,20.02
2019-04-19T10:46:54.600Z,20.01
2019-04-19T10:49:31.942Z,20.02
2019-04-19T10:51:50.157Z,20.01
2019-04-19T10:54:18.215Z,19.97
2019-04-19T10:56:46.098Z,19.92
2019-04-19T10:59:14.251Z,19.95
2019-04-19T11:01:43.236Z,19.95
2019-04-19T11:04:11.033Z,19.96
2019-04-19T11:06:39.693Z,20.04
2019-04-19T11:09:06.864Z,20.05
2019-04-19T11:11:34.388Z,20.02
2019-04-19T11:14:01.641Z,19.97
2019-04-19T11:16:29.607Z,19.98
2019-04-19T11:19:10.187Z,19.91
2019-04-19T11:21:25.443Z,19.50
2019-04-19T11:23:53.737Z,19.58
2019-04-19T11:26:21.104Z,19.52
2019-04-19T11:28:49.089Z,19.50
2019-04-19T11:31:18.861Z,19.32
2019-04-19T11:33:47.412Z,19.36
2019-04-19T11:36:15.396Z,19.28
2019-04-19T11:38:43.037Z,19.28
2019-04-19T11:41:11.209Z,19.31
2019-04-19T11:43:38.183Z,19.26
2019-04-19T11:46:06.300Z,19.22
2019-04-19T11:48:34.730Z,19.13
2019-04-19T11:51:03.545Z,19.16
2019-04-19T11:53:32.281Z,18.69
2019-04-19T11:56:00.355Z,18.61
2019-04-19T11:58:31.192Z,18.70
2019-04-19T12:00:56.270Z,18.78
2019-04-19T12:03:24.445Z,18.73
2019-04-19T12:05:51.461Z,18.68
2019-04-19T12:08:18.731Z,18.74
2019-04-19T12:10:46.416Z,18.62
2019-04-19T12:13:13.533Z,18.62
2019-04-19T12:15:40.401Z,18.59
2019-04-19T12:18:08.259Z,18.61
2019-04-19T12:20:35.350Z,18.64
2019-04-19T12:23:04.165Z,18.69
2019-04-19T12:25:31.280Z,18.80
2019-04-19T12:27:59.519Z,18.78
2019-04-19T12:30:27.346Z,18.79
2019-04-19T12:32:55.375Z,18.77
2019-04-19T12:35:23.387Z,18.73
2019-04-19T12:37:51.300Z,18.74
2019-04-19T12:40:22.772Z,18.72
2019-04-19T12:42:48.165Z,18.67
2019-04-19T12:45:15.740Z,18.63
2019-04-19T12:47:42.931Z,18.76
2019-04-19T12:50:11.713Z,18.86
2019-04-19T12:52:39.953Z,19.29
2019-04-19T12:55:08.171Z,19.31
2019-04-19T12:57:36.181Z,19.37
2019-04-19T13:00:03.195Z,19.40
2019-04-19T13:02:31.652Z,19.43
2019-04-19T13:04:58.617Z,19.37
2019-04-19T13:07:26.917Z,19.53
2019-04-19T13:09:55.089Z,19.77
2019-04-19T13:12:23.038Z,19.91
2019-04-19T13:14:51.232Z,19.69
2019-04-19T13:17:18.295Z,19.55
2019-04-19T13:19:47.500Z,19.41
2019-04-19T13:22:16.410Z,19.31
2019-04-19T13:24:44.685Z,19.48
2019-04-19T13:27:11.999Z,19.77
2019-04-19T13:29:39.145Z,19.94
2019-04-19T13:32:06.105Z,20.03
2019-04-19T13:34:33.537Z,20.08
2019-04-19T13:37:00.765Z,20.11
2019-04-19T13:39:27.895Z,20.11
2019-04-19T13:41:54.867Z,20.08
2019-04-19T13:44:22.957Z,20.11
2019-04-19T13:46:50.803Z,19.97
2019-04-19T13:49:18.867Z,19.90
2019-04-19T13:51:46.140Z,19.87
2019-04-19T13:54:14.541Z,19.88
2019-04-19T13:56:42.893Z,19.92
2019-04-19T13:59:10.040Z,20.05
2019-04-19T14:01:38.543Z,20.11
2019-04-19T14:04:05.859Z,20.02
2019-04-19T14:06:33.165Z,20.04
2019-04-19T14:09:00.804Z,20.21
2019-04-19T14:11:31.024Z,20.15
2019-04-19T14:14:00.332Z,20.11
2019-04-19T14:16:27.920Z,20.13
2019-04-19T14:18:55.282Z,20.19
2019-04-19T14:21:22.532Z,20.19
2019-04-19T14:23:49.808Z,19.94
2019-04-19T14:26:29.661Z,19.80
2019-04-19T14:28:45.480Z,19.61
2019-04-19T14:31:12.710Z,19.63
2019-04-19T14:33:39.610Z,19.47
2019-04-19T14:36:06.506Z,19.25
2019-04-19T14:38:33.925Z,18.73
2019-04-19T14:41:01.783Z,17.99
2019-04-19T14:43:30.334Z,18.37
2019-04-19T14:45:58.134Z,18.27
2019-04-19T14:48:31.154Z,18.36
2019-04-19T14:51:02.046Z,18.28
2019-04-19T14:53:22.451Z,18.46
2019-04-19T14:55:50.090Z,18.45
2019-04-19T14:58:17.474Z,18.48
2019-04-19T15:00:45.154Z,18.44
2019-04-19T15:03:12.778Z,18.61
2019-04-19T15:05:39.789Z,18.38
2019-04-19T15:08:06.757Z,18.55
2019-04-19T15:10:33.710Z,18.57
2019-04-19T15:13:01.016Z,18.67
2019-04-19T15:15:29.084Z,18.66
2019-04-19T15:17:57.394Z,18.73
2019-04-19T15:20:24.544Z,19.20
2019-04-19T15:22:52.657Z,19.11
2019-04-19T15:25:20.014Z,19.41
2019-04-19T15:27:47.275Z,19.10
2019-04-19T15:30:15.010Z,18.48
2019-04-19T15:32:42.402Z,18.33
2019-04-19T15:35:09.734Z,18.13
2019-04-19T15:37:37.960Z,18.20
2019-04-19T15:40:05.072Z,17.81
2019-04-19T15:42:32.480Z,17.60
2019-04-19T15:45:00.691Z,17.53
2019-04-19T15:47:30.640Z,17.51
2019-04-19T15:49:57.951Z,17.70
2019-04-19T15:52:26.140Z,18.11
2019-04-19T15:54:54.302Z,17.78
2019-04-19T15:57:21.244Z,17.88
2019-04-19T15:59:48.155Z,17.83
2019-04-19T16:02:15.873Z,17.85
2019-04-19T16:04:44.028Z,17.78
2019-04-19T16:07:12.249Z,17.79
2019-04-19T16:09:39.812Z,17.46
2019-04-19T16:12:08.070Z,17.45
2019-04-19T16:14:35.652Z,17.46
2019-04-19T16:17:03.196Z,17.38
2019-04-19T16:19:30.406Z,17.51
2019-04-19T16:22:00.401Z,17.50
2019-04-19T16:24:27.241Z,17.04
2019-04-19T16:26:55.140Z,16.94
2019-04-19T16:29:33.555Z,16.97
2019-04-19T16:31:52.011Z,16.80
2019-04-19T16:34:19.051Z,16.32
2019-04-19T16:36:46.005Z,16.27
2019-04-19T16:39:13.274Z,16.29
2019-04-19T16:41:41.008Z,16.31
2019-04-19T16:44:08.032Z,16.42
2019-04-19T16:46:35.569Z,16.42
2019-04-19T16:49:02.549Z,15.97
2019-04-19T16:51:38.411Z,15.78
2019-04-19T16:54:00.294Z,15.83
2019-04-19T16:56:27.827Z,15.70
2019-04-19T16:58:55.127Z,15.59
2019-04-19T17:01:22.943Z,15.51
2019-04-19T17:03:51.414Z,15.59
2019-04-19T17:06:20.438Z,15.65
2019-04-19T17:08:48.323Z,15.52
2019-04-19T17:11:15.529Z,15.64
2019-04-19T17:13:42.818Z,15.61
2019-04-19T17:16:09.865Z,15.79
2019-04-19T17:18:37.197Z,16.00
2019-04-19T17:21:05.799Z,15.83
2019-04-19T17:23:32.845Z,15.85
2019-04-19T17:26:01.010Z,15.79
2019-04-19T17:28:28.659Z,16.07
2019-04-19T17:30:56.110Z,16.38
2019-04-19T17:33:24.230Z,16.32
2019-04-19T17:35:52.287Z,16.28
2019-04-19T17:38:31.200Z,16.11
2019-04-19T17:40:48.157Z,16.08
2019-04-19T17:43:15.337Z,16.09
2019-04-19T17:45:42.297Z,16.01
2019-04-19T17:48:10.351Z,15.82
2019-04-19T17:50:38.648Z,15.85
2019-04-19T17:53:06.613Z,15.76
2019-04-19T17:55:41.206Z,15.70
2019-04-19T17:58:03.349Z,15.80
2019-04-19T18:00:30.444Z,15.80
2019-04-19T18:02:57.450Z,15.84
2019-04-19T18:05:24.404Z,15.94
2019-04-19T18:07:52.500Z,15.97
2019-04-19T18:10:26.858Z,16.02
2019-04-19T18:12:50.586Z,15.96
2019-04-19T18:15:17.460Z,16.05
2019-04-19T18:17:48.546Z,16.05
2019-04-19T18:20:16.496Z,16.09
2019-04-19T18:22:54.466Z,16.17
2019-04-19T18:25:10.805Z,16.16
2019-04-19T18:27:45.071Z,16.26
2019-04-19T18:30:09.814Z,16.45
2019-04-19T18:32:36.390Z,16.46
2019-04-19T18:35:07.790Z,16.58
2019-04-19T18:37:36.172Z,16.80
2019-04-19T18:40:00.879Z,17.01
2019-04-19T18:42:47.207Z,17.25
2019-04-19T18:45:02.972Z,17.42
2019-04-19T18:47:30.124Z,17.60
2019-04-19T18:49:57.375Z,17.71
2019-04-19T18:52:37.214Z,17.94
2019-04-19T18:54:59.606Z,18.19
2019-04-19T18:57:22.318Z,18.60
2019-04-19T18:59:53.507Z,20.78
2019-04-19T19:02:21.278Z,22.41
2019-04-19T19:04:46.862Z,23.18
2019-04-19T19:07:19.040Z,23.76
2019-04-19T19:09:48.523Z,24.43
2019-04-19T19:12:13.796Z,25.04
2019-04-19T19:14:43.636Z,25.21
2019-04-19T19:17:28.515Z,25.74
2019-04-19T19:20:04.099Z,26.16
2019-04-19T19:22:32.057Z,26.59
2019-04-19T19:25:12.492Z,26.97
2019-04-19T19:27:26.823Z,26.75
2019-04-19T19:29:52.265Z,25.91
2019-04-19T19:32:20.750Z,24.73
2019-04-19T19:34:48.128Z,25.02
2019-04-19T19:37:20.719Z,24.41
2019-04-19T19:39:53.939Z,25.12
2019-04-19T19:42:40.159Z,25.34
2019-04-19T19:44:52.132Z,24.85
2019-04-19T19:47:33.506Z,25.29
2019-04-19T19:50:06.957Z,25.07
2019-04-19T19:52:22.429Z,24.81
2019-04-19T19:54:58.972Z,24.81
2019-04-19T19:57:22.588Z,24.42
2019-04-19T19:59:37.938Z,24.55
2019-04-19T20:02:17.571Z,24.75
2019-04-19T20:04:35.030Z,24.94
2019-04-19T20:07:05.349Z,25.83
2019-04-19T20:09:32.081Z,26.03
2019-04-19T20:12:03.737Z,26.24
2019-04-19T20:14:32.121Z,26.60
2019-04-19T20:17:01.138Z,27.40
2019-04-19T20:19:25.765Z,27.39
2019-04-19T20:21:59.151Z,27.33
2019-04-19T20:24:34.070Z,27.95
2019-04-19T20:27:04.987Z,28.26
2019-04-19T20:29:23.957Z,28.21
2019-04-19T20:31:48.329Z,28.52
2019-04-19T20:34:22.711Z,28.39
2019-04-19T20:36:46.755Z,28.35
2019-04-19T20:39:13.655Z,28.75
2019-04-19T20:41:45.817Z,28.62
2019-04-19T20:44:28.969Z,28.02
2019-04-19T20:46:38.025Z,28.32
2019-04-19T20:49:08.177Z,28.26
2019-04-19T20:51:46.928Z,28.51
2019-04-19T20:54:31.134Z,27.79
2019-04-19T20:56:56.835Z,27.90
2019-04-19T20:59:01.910Z,27.98
2019-04-19T21:01:30.750Z,28.12
2019-04-19T21:04:01.648Z,28.09
2019-04-19T21:06:31.426Z,28.11
2019-04-19T21:08:56.233Z,28.06
2019-04-19T21:11:23.720Z,28.34
2019-04-19T21:13:56.771Z,28.51
2019-04-19T21:16:20.892Z,28.54
2019-04-19T21:18:49.513Z,28.48
2019-04-19T21:21:18.801Z,28.73
2019-04-19T21:23:56.815Z,28.41
2019-04-19T21:26:20.598Z,28.07
2019-04-19T21:28:46.124Z,28.02
2019-04-19T21:31:12.502Z,28.16
2019-04-19T21:33:46.131Z,28.25
2019-04-19T21:36:11.676Z,28.36
2019-04-19T21:38:38.157Z,28.61
2019-04-19T21:41:16.388Z,28.75
2019-04-19T21:43:37.583Z,28.89
2019-04-19T21:46:03.744Z,28.87
2019-04-19T21:48:35.920Z,28.97
2019-04-19T21:50:59.860Z,28.98
2019-04-19T21:53:29.865Z,28.52
2019-04-19T21:56:04.117Z,28.28
2019-04-19T21:58:25.049Z,28.32
2019-04-19T22:00:58.729Z,28.10
2019-04-19T22:03:24.587Z,28.00
2019-04-19T22:05:51.348Z,27.98
2019-04-19T22:08:22.593Z,28.26
2019-04-19T22:10:49.730Z,28.50
2019-04-19T22:13:16.435Z,28.28
2019-04-19T22:15:50.729Z,28.45
2019-04-19T22:18:13.380Z,28.61
2019-04-19T22:20:40.714Z,28.79
2019-04-19T22:23:09.609Z,29.12
2019-04-19T22:25:47.577Z,28.78
2019-04-19T22:28:05.613Z,28.60
2019-04-19T22:30:38.861Z,28.74
2019-04-19T22:33:03.021Z,28.96
2019-04-19T22:35:30.319Z,28.99
2019-04-19T22:38:00.888Z,29.05
2019-04-19T22:40:26.893Z,29.24
2019-04-19T22:43:01.585Z,29.34
2019-04-19T22:45:24.975Z,29.46
2019-04-19T22:47:53.065Z,29.54
2019-04-19T22:50:26.503Z,29.55
2019-04-19T22:52:48.210Z,29.68
2019-04-19T22:55:18.218Z,29.80
2019-04-19T22:57:51.519Z,29.88
2019-04-19T23:00:13.847Z,29.85
2019-04-19T23:02:47.024Z,29.77
2019-04-19T23:05:11.085Z,29.57
2019-04-19T23:07:44.676Z,29.50
2019-04-19T23:10:06.714Z,29.53
2019-04-19T23:12:35.438Z,29.63
2019-04-19T23:15:03.601Z,29.65
2019-04-19T23:17:36.563Z,29.57
2019-04-19T23:19:59.256Z,29.54
2019-04-19T23:22:31.346Z,29.66
2019-04-19T23:25:00.314Z,29.70
2019-04-19T23:27:34.185Z,29.66
2019-04-19T23:29:52.704Z,29.51
2019-04-19T23:32:23.685Z,29.44
2019-04-19T23:34:52.250Z,29.46
2019-04-19T23:37:17.963Z,29.65
2019-04-19T23:39:52.219Z,29.88
2019-04-19T23:42:15.088Z,29.97
2019-04-19T23:44:45.317Z,29.88
2019-04-19T23:47:12.646Z,29.92
2019-04-19T23:49:46.068Z,29.93
2019-04-19T23:52:09.537Z,30.04
2019-04-19T23:54:37.205Z,30.28
2019-04-19T23:57:15.972Z,30.50
2019-04-19T23:59:34.352Z,30.54
